createdAt,value
2019-02-04T10:16:59.804Z,76.12
2019-02-04T10:17:59.816Z,73.74
2019-02-04T10:18:59.815Z,74.77
2019-02-04T10:19:59.808Z,74.19
2019-02-04T10:20:59.768Z,75.64
2019-02-04T10:21:59.761Z,75.64
2019-02-04T10:22:59.782Z,73.67
2019-02-04T10:23:59.728Z,74.46
2019-02-04T10:24:59.740Z,75.36
2019-02-04T10:25:59.683Z,75.43
2019-02-04T10:26:59.747Z,73.57
2019-02-04T10:27:59.700Z,73.05
2019-02-04T10:28:59.692Z,72.98
2019-02-04T10:29:59.638Z,73.18
2019-02-04T10:30:59.652Z,74.22
2019-02-04T10:31:59.646Z,74.40
2019-02-04T10:32:59.607Z,73.25
2019-02-04T10:33:59.626Z,73.46
2019-02-04T10:34:59.619Z,73.98
2019-02-04T10:35:59.871Z,71.59
2019-02-04T10:36:59.806Z,73.39
2019-02-04T10:37:59.580Z,73.67
2019-02-04T10:38:59.545Z,73.36
2019-02-04T10:39:59.749Z,74.15
2019-02-04T10:40:59.542Z,73.08
2019-02-04T10:41:59.540Z,70.18
2019-02-04T10:42:59.513Z,70.04
2019-02-04T10:43:59.632Z,71.80
2019-02-04T10:44:59.509Z,70.46
2019-02-04T10:45:59.516Z,72.25
2019-02-04T10:46:59.468Z,70.87
2019-02-04T10:47:59.434Z,70.52
2019-02-04T10:48:59.423Z,72.15
2019-02-04T10:49:59.444Z,72.22
2019-02-04T10:50:59.463Z,71.04
2019-02-04T10:51:59.403Z,71.88
2019-02-04T10:52:59.383Z,69.60
2019-02-04T10:53:59.389Z,69.35
2019-02-04T10:54:59.541Z,69.18
2019-02-04T10:55:59.375Z,68.66
2019-02-04T10:56:59.355Z,69.08
2019-02-04T10:57:59.377Z,68.56
2019-02-04T10:58:59.319Z,69.21
2019-02-04T10:59:59.298Z,69.32
2019-02-04T11:00:59.319Z,69.01
2019-02-04T11:01:59.318Z,69.11
2019-02-04T11:02:59.268Z,71.28
2019-02-04T11:03:59.419Z,70.32
2019-02-04T11:04:59.327Z,68.56
2019-02-04T11:05:59.264Z,67.52
2019-02-04T11:06:59.266Z,69.08
2019-02-04T11:07:59.259Z,67.11
2019-02-04T11:08:59.242Z,68.15
2019-02-04T11:09:59.194Z,68.25
2019-02-04T11:10:59.239Z,68.15
2019-02-04T11:11:59.194Z,67.36
2019-02-04T11:12:59.205Z,65.50
2019-02-04T11:13:59.166Z,66.02
2019-02-04T11:14:59.151Z,66.42
2019-02-04T11:15:59.169Z,66.02
2019-02-04T11:16:59.146Z,64.77
2019-02-04T11:17:59.139Z,64.39
2019-02-04T11:18:59.088Z,65.91
2019-02-04T11:19:59.079Z,64.67
2019-02-04T11:20:59.106Z,64.95
2019-02-04T11:21:59.063Z,64.64
2019-02-04T11:22:59.046Z,65.02
2019-02-04T11:23:59.052Z,63.09
2019-02-04T11:24:59.019Z,64.30
2019-02-04T11:25:59.147Z,63.34
2019-02-04T11:26:59.041Z,63.16
2019-02-04T11:27:58.996Z,63.62
2019-02-04T11:28:59.020Z,63.51
2019-02-04T11:29:59.027Z,63.79
2019-02-04T11:30:58.955Z,62.55
2019-02-04T11:31:58.984Z,61.42
2019-02-04T11:32:58.967Z,62.32
2019-02-04T11:33:58.918Z,63.25
2019-02-04T11:34:58.912Z,61.80
2019-02-04T11:35:59.024Z,61.40
2019-02-04T11:36:58.944Z,62.24
2019-02-04T11:37:58.878Z,59.56
2019-02-04T11:38:58.867Z,58.94
2019-02-04T11:39:58.881Z,58.58
2019-02-04T11:40:58.842Z,60.44
2019-02-04T11:41:58.912Z,60.70
2019-02-04T11:42:58.836Z,61.66
2019-02-04T11:43:58.862Z,62.07
2019-02-04T11:44:58.798Z,62.10
2019-02-04T11:45:58.793Z,62.41
2019-02-04T11:46:58.805Z,62.69
2019-02-04T11:47:58.863Z,62.97
2019-02-04T11:48:58.757Z,61.01
2019-02-04T11:49:58.741Z,60.39
2019-02-04T11:51:09.332Z,61.40
2019-02-04T11:51:59.749Z,60.70
2019-02-04T11:52:58.711Z,61.19
2019-02-04T11:53:58.706Z,59.53
2019-02-04T11:54:58.702Z,59.88
2019-02-04T11:55:58.675Z,60.57
2019-02-04T11:56:58.695Z,59.56
2019-02-04T11:57:58.652Z,59.64
2019-02-04T11:58:58.643Z,60.47
2019-02-04T11:59:58.680Z,60.28
2019-02-04T12:00:58.640Z,60.52
2019-02-04T12:01:58.643Z,60.39
2019-02-04T12:02:58.596Z,59.67
2019-02-04T12:03:58.585Z,60.65
2019-02-04T12:04:58.589Z,61.24
2019-02-04T12:05:58.573Z,60.49
2019-02-04T12:06:58.582Z,59.28
2019-02-04T12:07:58.564Z,61.94
2019-02-04T12:08:58.530Z,61.55
2019-02-04T12:09:58.519Z,59.69
2019-02-04T12:10:58.515Z,61.24
2019-02-04T12:11:58.532Z,59.80
2019-02-04T12:12:58.488Z,60.73
2019-02-04T12:13:58.491Z,61.14
2019-02-04T12:14:58.466Z,61.11
2019-02-04T12:15:58.456Z,61.32
2019-02-04T12:16:59.215Z,59.90
2019-02-04T12:17:58.432Z,60.63
2019-02-04T12:18:58.419Z,60.60
2019-02-04T12:19:58.412Z,59.62
2019-02-04T12:20:58.398Z,61.79
2019-02-04T12:21:58.431Z,63.04
2019-02-04T12:22:58.382Z,60.33
2019-02-04T12:23:58.364Z,60.54
2019-02-04T12:24:58.362Z,60.47
2019-02-04T12:25:58.365Z,60.26
2019-02-04T12:26:58.336Z,60.54
2019-02-04T12:27:58.347Z,59.56
2019-02-04T12:28:58.312Z,60.65
2019-02-04T12:29:58.308Z,61.79
2019-02-04T12:30:58.289Z,60.93
2019-02-04T12:31:58.278Z,60.00
2019-02-04T12:32:58.300Z,62.46
2019-02-04T12:33:58.270Z,62.43
2019-02-04T12:34:58.261Z,58.86
2019-02-04T12:35:58.233Z,59.97
2019-02-04T12:36:58.228Z,57.96
2019-02-04T12:37:58.239Z,57.01
2019-02-04T12:38:58.238Z,56.41
2019-02-04T12:39:58.194Z,56.62
2019-02-04T12:40:58.190Z,55.62
2019-02-04T12:41:58.170Z,56.46
2019-02-04T12:42:58.183Z,57.81
2019-02-04T12:43:58.143Z,57.78
2019-02-04T12:44:58.153Z,58.32
2019-02-04T12:45:58.125Z,57.88
2019-02-04T12:46:58.109Z,56.34
2019-02-04T12:48:00.617Z,57.88
2019-02-04T12:48:58.091Z,57.86
2019-02-04T12:49:58.079Z,56.65
2019-02-04T12:50:58.068Z,55.10
2019-02-04T12:51:58.071Z,56.65
2019-02-04T12:52:58.183Z,56.95
2019-02-04T12:53:58.122Z,56.77
2019-02-04T12:54:58.025Z,57.96
2019-02-04T12:55:58.040Z,55.28
2019-02-04T12:56:58.013Z,54.87
2019-02-04T12:57:57.997Z,55.38
2019-02-04T12:58:57.980Z,55.21
2019-02-04T12:59:58.003Z,55.93
2019-02-04T13:00:58.043Z,54.92
2019-02-04T13:01:57.989Z,56.16
2019-02-04T13:02:58.490Z,56.44
2019-02-04T13:03:57.923Z,55.36
2019-02-04T13:04:57.920Z,57.73
2019-02-04T13:05:57.925Z,56.18
2019-02-04T13:06:57.888Z,56.90
2019-02-04T13:07:57.881Z,55.05
2019-02-04T13:08:57.876Z,56.52
2019-02-04T13:09:57.857Z,56.62
2019-02-04T13:10:57.884Z,56.90
2019-02-04T13:11:57.853Z,57.83
2019-02-04T13:12:57.823Z,57.01
2019-02-04T13:13:57.814Z,57.86
2019-02-04T13:14:57.800Z,57.14
2019-02-04T13:15:57.847Z,57.47
2019-02-04T13:16:57.779Z,59.18
2019-02-04T13:17:57.773Z,59.18
2019-02-04T13:18:57.757Z,58.07
2019-02-04T13:19:57.760Z,59.03
2019-02-04T13:20:57.737Z,59.88
2019-02-04T13:21:57.755Z,60.71
2019-02-04T13:22:57.741Z,59.78
2019-02-04T13:23:57.706Z,59.88
2019-02-04T13:24:57.690Z,60.60
2019-02-04T13:25:57.680Z,61.95
2019-02-04T13:26:57.701Z,60.50
2019-02-04T13:27:57.669Z,60.99
2019-02-04T13:28:57.654Z,59.64
2019-02-04T13:29:57.649Z,60.58
2019-02-04T13:30:57.626Z,60.58
2019-02-04T13:31:57.639Z,60.75
2019-02-04T13:32:57.746Z,59.03
2019-02-04T13:33:57.613Z,60.65
2019-02-04T13:34:57.601Z,59.13
2019-02-04T13:35:57.573Z,60.68
2019-02-04T13:36:57.582Z,60.34
2019-02-04T13:37:57.548Z,59.62
2019-02-04T13:38:57.551Z,60.55
2019-02-04T13:39:57.524Z,59.75
2019-02-04T13:41:07.532Z,59.55
2019-02-04T13:41:58.528Z,59.34
2019-02-04T13:42:57.528Z,60.06
2019-02-04T13:43:57.477Z,59.44
2019-02-04T13:44:57.494Z,59.03
2019-02-04T13:45:57.463Z,59.55
2019-02-04T13:46:57.475Z,59.72
2019-02-04T13:47:57.454Z,59.72
2019-02-04T13:48:57.422Z,59.93
2019-02-04T13:49:57.412Z,59.55
2019-02-04T13:50:57.400Z,59.78
2019-02-04T13:51:58.009Z,60.84
2019-02-04T13:52:57.384Z,61.43
2019-02-04T13:53:57.391Z,60.60
2019-02-04T13:54:57.362Z,60.19
2019-02-04T13:55:57.343Z,60.50
2019-02-04T13:56:57.360Z,61.51
2019-02-04T13:57:57.326Z,62.02
2019-02-04T13:58:57.317Z,59.47
2019-02-04T13:59:57.299Z,61.30
2019-02-04T14:00:57.333Z,60.30
2019-02-04T14:01:57.300Z,60.68
2019-02-04T14:02:59.500Z,60.55
2019-02-04T14:03:57.256Z,59.62
2019-02-04T14:04:57.261Z,58.79
2019-02-04T14:05:57.232Z,59.72
2019-02-04T14:06:57.244Z,61.89
2019-02-04T14:07:57.212Z,60.42
2019-02-04T14:08:57.210Z,58.89
2019-02-04T14:09:59.213Z,59.41
2019-02-04T14:10:57.228Z,59.75
2019-02-04T14:11:57.262Z,59.75
2019-02-04T14:12:57.163Z,59.93
2019-02-04T14:13:57.149Z,59.64
2019-02-04T14:14:57.140Z,60.89
2019-02-04T14:15:57.131Z,59.95
2019-02-04T14:16:57.484Z,60.71
2019-02-04T14:17:57.099Z,61.33
2019-02-04T14:18:57.086Z,61.85
2019-02-04T14:19:57.090Z,62.85
2019-02-04T14:20:57.062Z,62.62
2019-02-04T14:22:08.656Z,62.51
2019-02-04T14:22:58.058Z,61.24
2019-02-04T14:23:57.040Z,60.03
2019-02-04T14:24:57.017Z,59.64
2019-02-04T14:25:57.026Z,59.95
2019-02-04T14:26:57.019Z,60.60
2019-02-04T14:27:56.985Z,62.54
2019-02-04T14:28:57.001Z,61.82
2019-02-04T14:29:56.971Z,60.47
2019-02-04T14:30:56.980Z,60.40
2019-02-04T14:31:57.009Z,61.22
2019-02-04T14:32:56.927Z,62.67
2019-02-04T14:33:58.146Z,60.40
2019-02-04T14:34:56.934Z,60.50
2019-02-04T14:35:56.898Z,61.74
2019-02-04T14:36:56.913Z,61.95
2019-02-04T14:37:56.883Z,62.16
2019-02-04T14:38:56.874Z,62.65
2019-02-04T14:39:56.852Z,61.99
2019-02-04T14:40:56.841Z,61.48
2019-02-04T14:41:56.855Z,62.93
2019-02-04T14:42:59.667Z,60.03
2019-02-04T14:43:56.813Z,60.06
2019-02-04T14:44:56.818Z,60.58
2019-02-04T14:45:56.788Z,60.78
2019-02-04T14:46:56.798Z,60.47
2019-02-04T14:48:05.715Z,60.40
2019-02-04T14:48:57.755Z,60.16
2019-02-04T14:49:56.744Z,60.89
2019-02-04T14:50:56.742Z,62.16
2019-02-04T14:51:56.743Z,60.60
2019-02-04T14:52:56.709Z,62.16
2019-02-04T14:53:56.698Z,61.43
2019-02-04T14:54:56.689Z,61.57
2019-02-04T14:55:56.675Z,62.29
2019-02-04T14:56:56.681Z,62.73
2019-02-04T14:57:56.676Z,62.42
2019-02-04T14:58:56.645Z,63.35
2019-02-04T14:59:56.639Z,62.42
2019-02-04T15:00:56.619Z,62.94
2019-02-04T15:01:56.610Z,62.87
2019-02-04T15:02:56.640Z,62.55
2019-02-04T15:03:56.588Z,62.24
2019-02-04T15:04:56.577Z,63.59
2019-02-04T15:05:56.572Z,63.90
2019-02-04T15:06:56.553Z,63.35
2019-02-04T15:07:56.577Z,62.97
2019-02-04T15:08:56.535Z,63.90
2019-02-04T15:09:56.640Z,63.20
2019-02-04T15:10:56.510Z,65.45
2019-02-04T15:11:56.496Z,63.59
2019-02-04T15:12:56.513Z,63.51
2019-02-04T15:13:56.476Z,64.03
2019-02-04T15:14:56.465Z,63.93
2019-02-04T15:15:56.453Z,63.93
2019-02-04T15:16:56.493Z,64.03
2019-02-04T15:17:56.459Z,64.14
2019-02-04T15:18:56.420Z,63.72
2019-02-04T15:19:56.415Z,62.48
2019-02-04T15:20:56.426Z,62.48
2019-02-04T15:21:56.413Z,64.34
2019-02-04T15:22:56.405Z,62.82
2019-02-04T15:24:08.132Z,64.58
2019-02-04T15:24:57.354Z,65.62
2019-02-04T15:25:56.344Z,63.62
2019-02-04T15:26:56.344Z,64.06
2019-02-04T15:27:56.347Z,64.76
2019-02-04T15:28:56.354Z,63.96
2019-02-04T15:29:56.298Z,64.48
2019-02-04T15:30:56.287Z,64.69
2019-02-04T15:31:56.289Z,65.72
2019-02-04T15:32:56.402Z,65.00
2019-02-04T15:33:56.273Z,65.41
2019-02-04T15:35:04.175Z,64.20
2019-02-04T15:35:57.230Z,65.41
2019-02-04T15:36:56.231Z,64.06
2019-02-04T15:37:56.231Z,65.83
2019-02-04T15:38:56.201Z,63.96
2019-02-04T15:39:56.187Z,64.61
2019-02-04T15:40:56.181Z,63.89
2019-02-04T15:41:56.166Z,64.09
2019-02-04T15:42:56.188Z,65.03
2019-02-04T15:43:56.142Z,65.96
2019-02-04T15:44:56.133Z,64.61
2019-02-04T15:45:56.120Z,64.72
2019-02-04T15:46:56.112Z,66.38
2019-02-04T15:47:56.127Z,65.47
2019-02-04T15:48:56.099Z,63.68
2019-02-04T15:49:56.081Z,64.09
2019-02-04T15:50:56.066Z,64.92
2019-02-04T15:51:56.055Z,63.68
2019-02-04T15:52:56.073Z,65.55
2019-02-04T15:53:56.033Z,64.61
2019-02-04T15:54:56.022Z,64.30
2019-02-04T15:55:56.019Z,62.46
2019-02-04T15:56:56.002Z,63.81
2019-02-04T15:57:56.014Z,63.81
2019-02-04T15:58:55.978Z,63.71
2019-02-04T15:59:55.967Z,63.81
2019-02-04T16:00:55.959Z,63.84
2019-02-04T16:01:55.969Z,66.09
2019-02-04T16:02:55.959Z,64.02
2019-02-04T16:03:55.928Z,63.60
2019-02-04T16:04:55.912Z,64.15
2019-02-04T16:05:55.902Z,63.92
2019-02-04T16:06:55.893Z,63.42
2019-02-04T16:07:55.921Z,64.25
2019-02-04T16:08:55.874Z,64.25
2019-02-04T16:09:55.860Z,65.91
2019-02-04T16:10:55.847Z,64.36
2019-02-04T16:11:55.839Z,67.06
2019-02-04T16:12:55.851Z,64.46
2019-02-04T16:13:55.837Z,64.46
2019-02-04T16:14:55.804Z,63.94
2019-02-04T16:15:55.791Z,64.67
2019-02-04T16:16:55.782Z,64.56
2019-02-04T16:17:55.796Z,64.25
2019-02-04T16:18:55.760Z,64.67
2019-02-04T16:19:55.766Z,64.15
2019-02-04T16:20:55.738Z,64.25
2019-02-04T16:21:55.732Z,64.25
2019-02-04T16:22:58.870Z,65.50
2019-02-04T16:23:55.707Z,67.34
2019-02-04T16:24:55.695Z,64.33
2019-02-04T16:25:55.705Z,64.95
2019-02-04T16:26:55.678Z,62.90
2019-02-04T16:27:55.663Z,65.08
2019-02-04T16:28:55.674Z,64.46
2019-02-04T16:29:55.641Z,65.50
2019-02-04T16:30:55.629Z,62.59
2019-02-04T16:31:55.632Z,63.45
2019-02-04T16:32:55.607Z,64.39
2019-02-04T16:33:55.621Z,62.70
2019-02-04T16:34:55.585Z,64.18
2019-02-04T16:35:55.576Z,63.24
2019-02-04T16:36:55.564Z,65.94
2019-02-04T16:37:55.571Z,64.28
2019-02-04T16:38:55.567Z,65.94
2019-02-04T16:39:55.529Z,63.97
2019-02-04T16:40:55.521Z,62.41
2019-02-04T16:41:55.511Z,63.45
2019-02-04T16:42:55.498Z,63.97
2019-02-04T16:43:55.521Z,64.18
2019-02-04T16:44:55.514Z,63.24
2019-02-04T16:45:55.466Z,62.93
2019-02-04T16:46:55.461Z,63.90
2019-02-04T16:47:55.443Z,63.66
2019-02-04T16:48:55.456Z,63.87
2019-02-04T16:49:55.511Z,63.87
2019-02-04T16:51:10.635Z,63.24
2019-02-04T16:51:56.399Z,63.17
2019-02-04T16:52:55.388Z,64.42
2019-02-04T16:53:55.398Z,64.11
2019-02-04T16:54:55.366Z,63.87
2019-02-04T16:55:55.355Z,64.59
2019-02-04T16:56:55.377Z,62.96
2019-02-04T16:57:55.332Z,62.96
2019-02-04T16:58:55.348Z,64.07
2019-02-04T16:59:55.313Z,64.18
2019-02-04T17:00:55.301Z,64.49
2019-02-04T17:01:55.287Z,63.14
2019-02-04T17:02:55.292Z,62.93
2019-02-04T17:03:55.290Z,64.39
2019-02-04T17:04:55.254Z,63.87
2019-02-04T17:05:55.245Z,64.59
2019-02-04T17:06:55.232Z,63.66
2019-02-04T17:07:55.225Z,63.97
2019-02-04T17:08:55.266Z,63.76
2019-02-04T17:09:55.206Z,63.76
2019-02-04T17:10:55.189Z,64.42
2019-02-04T17:11:55.188Z,64.42
2019-02-04T17:12:55.168Z,63.17
2019-02-04T17:13:55.182Z,64.62
2019-02-04T17:14:55.170Z,66.15
2019-02-04T17:15:55.133Z,67.09
2019-02-04T17:16:55.121Z,65.73
2019-02-04T17:17:55.111Z,64.67
2019-02-04T17:18:55.126Z,63.76
2019-02-04T17:19:55.087Z,64.18
2019-02-04T17:20:55.129Z,64.07
2019-02-04T17:21:55.066Z,65.53
2019-02-04T17:22:55.056Z,66.25
2019-02-04T17:23:55.070Z,65.53
2019-02-04T17:24:55.050Z,64.80
2019-02-04T17:25:55.025Z,64.28
2019-02-04T17:26:55.031Z,66.78
2019-02-04T17:27:55.005Z,65.53
2019-02-04T17:28:55.014Z,65.45
2019-02-04T17:29:54.980Z,66.15
2019-02-04T17:30:54.967Z,66.36
2019-02-04T17:31:54.959Z,65.77
2019-02-04T17:32:54.957Z,65.63
2019-02-04T17:33:54.958Z,66.05
2019-02-04T17:34:54.924Z,65.45
2019-02-04T17:35:54.915Z,66.28
2019-02-04T17:36:54.901Z,65.66
2019-02-04T17:37:54.918Z,65.66
2019-02-04T17:38:54.903Z,66.08
2019-02-04T17:39:54.870Z,65.04
2019-02-04T17:40:54.859Z,67.43
2019-02-04T17:41:54.847Z,66.60
2019-02-04T17:42:54.838Z,65.14
2019-02-04T17:43:54.857Z,66.08
2019-02-04T17:44:54.816Z,66.11
2019-02-04T17:45:54.802Z,67.74
2019-02-04T17:46:54.791Z,68.26
2019-02-04T17:47:54.777Z,67.12
2019-02-04T17:48:54.790Z,67.33
2019-02-04T17:49:54.769Z,65.66
2019-02-04T17:50:54.747Z,66.28
2019-02-04T17:51:54.739Z,65.97
2019-02-04T17:52:54.891Z,67.33
2019-02-04T17:53:54.739Z,66.08
2019-02-04T17:54:54.704Z,68.05
2019-02-04T17:55:54.711Z,66.71
2019-02-04T17:56:54.683Z,67.43
2019-02-04T17:57:54.672Z,66.71
2019-02-04T17:58:54.723Z,66.18
2019-02-04T17:59:54.665Z,66.50
2019-02-04T18:00:54.679Z,67.02
2019-02-04T18:01:54.648Z,66.81
2019-02-04T18:02:54.622Z,66.71
2019-02-04T18:03:54.603Z,66.88
2019-02-04T18:04:54.749Z,66.60
2019-02-04T18:05:54.605Z,66.78
2019-02-04T18:06:54.569Z,66.81
2019-02-04T18:07:54.576Z,66.57
2019-02-04T18:08:54.579Z,67.19
2019-02-04T18:09:54.558Z,66.28
2019-02-04T18:10:54.523Z,66.00
2019-02-04T18:11:54.512Z,67.43
2019-02-04T18:12:54.502Z,66.81
2019-02-04T18:13:54.493Z,65.56
2019-02-04T18:14:54.539Z,66.81
2019-02-04T18:15:54.480Z,67.02
2019-02-04T18:16:54.458Z,67.22
2019-02-04T18:17:54.450Z,67.02
2019-02-04T18:18:54.434Z,67.30
2019-02-04T18:19:54.454Z,66.39
2019-02-04T18:20:54.433Z,67.09
2019-02-04T18:21:54.411Z,65.73
2019-02-04T18:22:54.387Z,67.33
2019-02-04T18:23:54.380Z,66.25
2019-02-04T18:24:54.388Z,67.85
2019-02-04T18:25:54.358Z,67.40
2019-02-04T18:26:54.351Z,66.28
2019-02-04T18:27:54.332Z,66.39
2019-02-04T18:28:54.321Z,66.71
2019-02-04T18:29:54.335Z,67.64
2019-02-04T18:30:54.299Z,68.16
2019-02-04T18:31:54.291Z,66.18
2019-02-04T18:32:54.296Z,66.74
2019-02-04T18:33:54.265Z,67.85
2019-02-04T18:34:54.277Z,67.95
2019-02-04T18:35:54.246Z,67.12
2019-02-04T18:36:54.237Z,65.97
2019-02-04T18:37:54.220Z,68.02
2019-02-04T18:38:54.238Z,69.06
2019-02-04T18:39:54.224Z,66.36
2019-02-04T18:40:54.188Z,66.15
2019-02-04T18:41:55.630Z,66.05
2019-02-04T18:42:54.167Z,66.05
2019-02-04T18:43:54.158Z,66.91
2019-02-04T18:44:54.196Z,65.53
2019-02-04T18:45:54.136Z,65.94
2019-02-04T18:46:54.123Z,64.28
2019-02-04T18:47:54.113Z,65.11
2019-02-04T18:48:54.100Z,64.59
2019-02-04T18:49:54.115Z,63.97
2019-02-04T18:50:54.095Z,64.59
2019-02-04T18:51:54.069Z,65.94
2019-02-04T18:52:54.055Z,64.70
2019-02-04T18:53:57.730Z,65.53
2019-02-04T18:54:54.057Z,66.36
2019-02-04T18:55:54.026Z,64.70
2019-02-04T18:56:54.029Z,65.50
2019-02-04T18:57:54.004Z,64.98
2019-02-04T18:58:53.996Z,64.77
2019-02-04T18:59:54.005Z,64.28
2019-02-04T19:00:53.981Z,64.80
2019-02-04T19:01:53.957Z,66.15
2019-02-04T19:02:53.976Z,64.28
2019-02-04T19:03:53.936Z,65.22
2019-02-04T19:04:53.970Z,65.53
2019-02-04T19:05:53.916Z,66.15
2019-02-04T19:06:53.907Z,65.84
2019-02-04T19:07:53.893Z,66.57
2019-02-04T19:08:53.891Z,66.12
2019-02-04T19:09:53.909Z,67.19
2019-02-04T19:10:53.862Z,67.79
2019-02-04T19:11:55.535Z,66.54
2019-02-04T19:12:53.841Z,68.10
2019-02-04T19:13:53.829Z,66.54
2019-02-04T19:14:54.801Z,67.19
2019-02-04T19:15:53.833Z,66.75
2019-02-04T19:16:53.795Z,66.85
2019-02-04T19:17:53.782Z,66.47
2019-02-04T19:18:53.775Z,66.25
2019-02-04T19:19:53.784Z,66.15
2019-02-04T19:20:53.751Z,66.57
2019-02-04T19:21:53.746Z,66.78
2019-02-04T19:22:53.730Z,67.06
2019-02-04T19:23:53.719Z,65.94
2019-02-04T19:24:53.732Z,66.25
2019-02-04T19:25:53.696Z,66.15
2019-02-04T19:26:54.159Z,66.36
2019-02-04T19:27:53.688Z,66.57
2019-02-04T19:28:53.663Z,67.92
2019-02-04T19:29:53.684Z,65.91
2019-02-04T19:30:53.644Z,66.02
2019-02-04T19:31:53.634Z,65.91
2019-02-04T19:32:53.619Z,66.12
2019-02-04T19:33:53.621Z,66.22
2019-02-04T19:34:53.654Z,66.22
2019-02-04T19:35:53.590Z,66.75
2019-02-04T19:36:53.575Z,65.91
2019-02-04T19:37:53.565Z,66.02
2019-02-04T19:38:53.555Z,65.22
2019-02-04T19:39:53.554Z,66.47
2019-02-04T19:40:53.557Z,66.12
2019-02-04T19:41:53.521Z,66.64
2019-02-04T19:42:53.512Z,65.70
2019-02-04T19:43:53.499Z,66.64
2019-02-04T19:44:53.494Z,64.77
2019-02-04T19:45:53.513Z,66.02
2019-02-04T19:46:53.478Z,65.73
2019-02-04T19:47:53.458Z,64.90
2019-02-04T19:48:53.444Z,66.44
2019-02-04T19:49:53.436Z,66.22
2019-02-04T19:50:53.445Z,66.44
2019-02-04T19:51:55.296Z,64.77
2019-02-04T19:52:53.406Z,65.81
2019-02-04T19:53:53.389Z,66.22
2019-02-04T19:54:53.377Z,66.57
2019-02-04T19:55:53.388Z,65.70
2019-02-04T19:56:53.358Z,64.56
2019-02-04T19:57:53.362Z,65.01
2019-02-04T19:58:53.334Z,65.60
2019-02-04T19:59:53.326Z,65.94
2019-02-04T20:00:53.333Z,67.68
2019-02-04T20:01:53.299Z,64.70
2019-02-04T20:02:53.287Z,65.81
2019-02-04T20:03:53.296Z,64.56
2019-02-04T20:04:53.294Z,64.56
2019-02-04T20:05:53.280Z,65.11
2019-02-04T20:06:53.248Z,64.39
2019-02-04T20:07:53.232Z,66.15
2019-02-04T20:08:53.240Z,66.22
2019-02-04T20:09:53.209Z,66.02
2019-02-04T20:10:53.243Z,65.53
2019-02-04T20:11:53.187Z,66.02
2019-02-04T20:12:53.176Z,66.22
2019-02-04T20:13:53.167Z,65.60
2019-02-04T20:14:56.096Z,65.91
2019-02-04T20:15:53.169Z,64.87
2019-02-04T20:16:53.148Z,64.87
2019-02-04T20:17:53.129Z,65.50
2019-02-04T20:18:53.110Z,66.75
2019-02-04T20:19:53.099Z,65.60
2019-02-04T20:20:53.116Z,65.81
2019-02-04T20:21:53.082Z,65.81
2019-02-04T20:22:53.080Z,64.59
2019-02-04T20:23:53.058Z,66.36
2019-02-04T20:24:53.046Z,66.44
2019-02-04T20:25:53.056Z,66.22
2019-02-04T20:26:53.022Z,66.88
2019-02-04T20:27:53.011Z,65.63
2019-02-04T20:28:53.025Z,65.53
2019-02-04T20:29:52.991Z,66.15
2019-02-04T20:30:53.015Z,66.88
2019-02-04T20:31:52.968Z,68.20
2019-02-04T20:32:52.956Z,66.33
2019-02-04T20:33:52.945Z,65.70
2019-02-04T20:34:52.952Z,65.94
2019-02-04T20:35:52.946Z,65.53
2019-02-04T20:36:52.914Z,65.66
2019-02-04T20:37:52.902Z,67.22
2019-02-04T20:38:52.891Z,67.09
2019-02-04T20:39:52.881Z,66.05
2019-02-04T20:40:52.925Z,65.53
2019-02-04T20:41:52.860Z,66.47
2019-02-04T20:42:52.848Z,66.36
2019-02-04T20:43:52.837Z,66.47
2019-02-04T20:44:52.823Z,66.25
2019-02-04T20:45:52.878Z,65.56
2019-02-04T20:46:52.804Z,65.42
2019-02-04T20:47:52.792Z,65.77
2019-02-04T20:48:52.781Z,67.71
2019-02-04T20:49:52.768Z,66.64
2019-02-04T20:50:52.757Z,67.47
2019-02-04T20:51:52.772Z,67.19
2019-02-04T20:52:52.765Z,65.29
2019-02-04T20:53:52.734Z,66.25
2019-02-04T20:54:52.722Z,65.56
2019-02-04T20:55:52.703Z,66.15
2019-02-04T20:56:52.717Z,66.50
2019-02-04T20:57:52.681Z,66.81
2019-02-04T20:58:52.669Z,66.28
2019-02-04T20:59:52.692Z,67.43
2019-02-04T21:00:52.650Z,65.63
2019-02-04T21:01:52.665Z,68.02
2019-02-04T21:02:52.627Z,67.50
2019-02-04T21:03:52.613Z,66.25
2019-02-04T21:04:52.603Z,65.97
2019-02-04T21:05:52.606Z,66.67
2019-02-04T21:06:56.068Z,65.84
2019-02-04T21:07:52.571Z,65.53
2019-02-04T21:08:52.558Z,65.84
2019-02-04T21:09:52.548Z,65.94
2019-02-04T21:10:52.535Z,65.53
2019-02-04T21:11:52.569Z,67.12
2019-02-04T21:12:52.513Z,66.67
2019-02-04T21:13:52.503Z,67.30
2019-02-04T21:14:52.497Z,66.88
2019-02-04T21:15:52.482Z,67.30
2019-02-04T21:16:52.494Z,66.36
2019-02-04T21:17:52.468Z,66.67
2019-02-04T21:18:52.449Z,65.53
2019-02-04T21:19:52.440Z,65.73
2019-02-04T21:20:52.426Z,66.15
2019-02-04T21:21:52.439Z,66.78
2019-02-04T21:22:52.407Z,67.50
2019-02-04T21:23:52.413Z,66.88
2019-02-04T21:24:56.460Z,67.40
2019-02-04T21:25:52.378Z,66.47
2019-02-04T21:26:52.394Z,66.78
2019-02-04T21:27:52.350Z,65.42
2019-02-04T21:28:52.340Z,67.12
2019-02-04T21:29:52.332Z,68.05
2019-02-04T21:30:52.317Z,65.97
2019-02-04T21:31:52.305Z,66.05
2019-02-04T21:32:52.317Z,67.09
2019-02-04T21:33:52.285Z,67.74
2019-02-04T21:34:52.279Z,67.43
2019-02-04T21:35:52.275Z,67.12
2019-02-04T21:36:52.249Z,67.40
2019-02-04T21:37:52.263Z,66.67
2019-02-04T21:38:52.227Z,68.23
2019-02-04T21:39:52.222Z,66.67
2019-02-04T21:40:52.207Z,68.33
2019-02-04T21:41:52.227Z,67.71
2019-02-04T21:42:52.222Z,67.82
2019-02-04T21:43:52.176Z,66.47
2019-02-04T21:44:52.168Z,65.73
2019-02-04T21:45:52.151Z,67.30
2019-02-04T21:46:52.140Z,68.23
2019-02-04T21:47:52.188Z,65.94
2019-02-04T21:48:52.120Z,66.88
2019-02-04T21:49:52.116Z,67.61
2019-02-04T21:50:52.100Z,67.30
2019-02-04T21:51:52.086Z,67.30
2019-02-04T21:52:52.074Z,67.30
2019-02-04T21:53:52.106Z,66.18
2019-02-04T21:54:52.053Z,68.78
2019-02-04T21:55:52.043Z,67.82
2019-02-04T21:56:52.036Z,67.82
2019-02-04T21:57:52.019Z,67.82
2019-02-04T21:58:52.034Z,67.58
2019-02-04T21:59:51.999Z,67.37
2019-02-04T22:00:52.015Z,67.27
2019-02-04T22:01:51.976Z,67.92
2019-02-04T22:02:51.967Z,68.54
2019-02-04T22:03:51.983Z,68.65
2019-02-04T22:04:51.944Z,68.41
2019-02-04T22:05:51.936Z,66.44
2019-02-04T22:06:51.931Z,67.27
2019-02-04T22:07:51.913Z,67.82
2019-02-04T22:08:51.923Z,67.71
2019-02-04T22:09:51.890Z,67.82
2019-02-04T22:10:51.878Z,67.19
2019-02-04T22:11:51.866Z,66.81
2019-02-04T22:12:51.865Z,67.22
2019-02-04T22:13:51.868Z,68.57
2019-02-04T22:14:51.833Z,68.44
2019-02-04T22:15:51.836Z,69.27
2019-02-04T22:16:51.812Z,68.33
2019-02-04T22:17:51.803Z,67.92
2019-02-04T22:18:51.881Z,68.75
2019-02-04T22:19:51.779Z,68.65
2019-02-04T22:20:51.770Z,68.85
2019-02-04T22:21:51.757Z,68.54
2019-02-04T22:22:51.763Z,67.92
2019-02-04T22:23:51.761Z,68.88
2019-02-04T22:24:51.743Z,68.99
2019-02-04T22:25:51.717Z,69.30
2019-02-04T22:26:51.704Z,69.71
2019-02-04T22:27:51.693Z,70.23
2019-02-04T22:28:51.706Z,68.78
2019-02-04T22:29:51.673Z,68.99
2019-02-04T22:30:51.697Z,69.30
2019-02-04T22:31:51.649Z,69.51
2019-02-04T22:32:51.641Z,70.03
2019-02-04T22:33:51.652Z,70.97
2019-02-04T22:34:51.617Z,70.54
2019-02-04T22:35:51.606Z,69.30
2019-02-04T22:36:51.608Z,70.17
2019-02-04T22:37:51.593Z,70.79
2019-02-04T22:38:51.598Z,72.34
2019-02-04T22:39:51.562Z,71.86
2019-02-04T22:40:51.557Z,71.86
2019-02-04T22:41:51.539Z,71.86
2019-02-04T22:42:51.544Z,73.42
2019-02-04T22:43:51.547Z,73.52
2019-02-04T22:44:51.509Z,74.25
2019-02-04T22:45:51.495Z,74.15
2019-02-04T22:46:51.485Z,74.67
2019-02-04T22:47:51.473Z,74.88
2019-02-04T22:48:51.503Z,75.50
2019-02-04T22:49:51.452Z,75.92
2019-02-04T22:50:51.439Z,75.92
2019-02-04T22:51:51.433Z,76.23
2019-02-04T22:52:51.417Z,74.98
2019-02-04T22:53:51.433Z,75.85
2019-02-04T22:54:51.431Z,75.85
2019-02-04T22:55:51.386Z,76.26
2019-02-04T22:56:51.388Z,76.78
2019-02-04T22:57:51.365Z,77.40
2019-02-04T22:58:52.272Z,76.89
2019-02-04T22:59:51.340Z,77.20
2019-02-04T23:00:51.343Z,77.09
2019-02-04T23:01:51.324Z,77.06
2019-02-04T23:02:51.307Z,76.99
2019-02-04T23:03:51.321Z,77.83
2019-02-04T23:04:51.293Z,76.89
2019-02-04T23:05:51.282Z,77.69
2019-02-04T23:06:51.273Z,76.64
2019-02-04T23:07:51.278Z,76.85
2019-02-04T23:08:51.270Z,76.95